createdAt,value
2018-09-04T00:00:52.461Z,0
2018-09-04T00:01:52.861Z,0
2018-09-04T00:02:52.492Z,0
2018-09-04T00:03:52.544Z,0
2018-09-04T00:04:52.542Z,0
2018-09-04T00:05:52.485Z,0
2018-09-04T00:06:52.522Z,0
2018-09-04T00:07:52.912Z,0
2018-09-04T00:08:52.499Z,0
2018-09-04T00:09:52.507Z,0
2018-09-04T00:10:52.528Z,0
2018-09-04T00:11:52.596Z,0
2018-09-04T00:12:52.532Z,0
2018-09-04T00:13:52.943Z,0
2018-09-04T00:19:09.528Z,0
2018-09-04T00:19:22.018Z,0
2018-09-04T00:20:22.037Z,0
2018-09-04T00:21:22.041Z,0
2018-09-04T00:22:22.005Z,0
2018-09-04T00:23:22.060Z,0
2018-09-04T00:24:22.018Z,0
2018-09-04T00:25:21.991Z,0
2018-09-04T00:26:21.998Z,0
2018-09-04T00:27:22.069Z,0
2018-09-04T00:28:22.015Z,0
2018-09-04T00:29:22.020Z,0
2018-09-04T00:30:22.333Z,0
2018-09-04T00:31:22.046Z,0
2018-09-04T00:32:22.039Z,0
2018-09-04T00:33:22.012Z,0
2018-09-04T00:34:22.194Z,0
2018-09-04T00:39:39.333Z,0
2018-09-04T00:39:51.526Z,0
2018-09-04T00:40:51.563Z,0
2018-09-04T00:41:51.527Z,0
2018-09-04T00:42:51.562Z,0
2018-09-04T00:43:55.387Z,0
2018-09-04T00:44:51.526Z,0
2018-09-04T00:45:51.548Z,0
2018-09-04T00:46:51.550Z,0
2018-09-04T00:47:51.644Z,0
2018-09-04T00:48:51.553Z,0
2018-09-04T00:49:51.948Z,0
2018-09-04T00:50:51.541Z,0
2018-09-04T00:51:51.552Z,0
2018-09-04T00:52:51.538Z,0
2018-09-04T00:58:08.899Z,0
2018-09-04T00:58:21.135Z,0
2018-09-04T00:59:21.120Z,0
2018-09-04T01:00:21.100Z,0
2018-09-04T01:01:21.100Z,0
2018-09-04T01:02:21.105Z,0
2018-09-04T01:03:21.522Z,0
2018-09-04T01:04:21.150Z,0
2018-09-04T01:05:21.089Z,0
2018-09-04T01:06:21.096Z,0
2018-09-04T01:07:21.101Z,0
2018-09-04T01:08:21.134Z,0
2018-09-04T01:09:22.489Z,0
2018-09-04T01:10:21.125Z,0
2018-09-04T01:11:21.165Z,0
2018-09-04T01:12:21.135Z,0
2018-09-04T01:13:21.090Z,0
2018-09-04T01:14:21.081Z,0
2018-09-04T01:15:21.520Z,0
2018-09-04T01:16:21.132Z,0
2018-09-04T01:17:21.105Z,0
2018-09-04T01:18:22.482Z,0
2018-09-04T01:19:21.116Z,0
2018-09-04T01:20:21.126Z,0
2018-09-04T01:21:21.438Z,0
2018-09-04T01:23:25.694Z,0
2018-09-04T01:23:37.898Z,0
2018-09-04T01:24:37.884Z,0
2018-09-04T01:25:37.856Z,0
2018-09-04T01:26:38.265Z,0
2018-09-04T01:27:37.879Z,0
2018-09-04T01:28:38.624Z,0
2018-09-04T01:29:37.891Z,0
2018-09-04T01:30:37.890Z,0
2018-09-04T01:31:37.884Z,0
2018-09-04T01:32:38.200Z,0
2018-09-04T01:33:37.908Z,0
2018-09-04T01:34:37.904Z,0
2018-09-04T01:35:37.925Z,0
2018-09-04T01:36:37.957Z,0
2018-09-04T01:37:37.896Z,0
2018-09-04T01:38:42.132Z,0
2018-09-04T01:39:37.917Z,0
2018-09-04T01:40:37.915Z,0
2018-09-04T01:41:37.919Z,0
2018-09-04T01:42:37.933Z,0
2018-09-04T01:43:37.967Z,0
2018-09-04T01:44:38.293Z,0
2018-09-04T01:45:37.908Z,0
2018-09-04T01:46:37.912Z,0
2018-09-04T01:47:37.953Z,0
2018-09-04T01:48:37.959Z,0
2018-09-04T01:49:37.915Z,0
2018-09-04T01:50:38.322Z,0
2018-09-04T01:51:37.912Z,0
2018-09-04T01:52:37.929Z,0
2018-09-04T01:53:38.029Z,0
2018-09-04T01:54:37.904Z,0
2018-09-04T01:55:37.979Z,0
2018-09-04T01:56:38.360Z,0
2018-09-04T01:57:38.044Z,0
2018-09-04T01:58:37.962Z,0
2018-09-04T01:59:37.972Z,0
2018-09-04T02:00:37.936Z,0
2018-09-04T02:01:37.966Z,0
2018-09-04T02:02:38.292Z,0
2018-09-04T02:03:37.991Z,0
2018-09-04T02:08:55.965Z,0
2018-09-04T02:09:08.677Z,0
2018-09-04T02:10:08.580Z,0
2018-09-04T02:11:08.556Z,0
2018-09-04T02:12:08.566Z,0
2018-09-04T02:13:08.546Z,0
2018-09-04T02:14:08.656Z,0
2018-09-04T02:15:08.549Z,0
2018-09-04T02:16:08.524Z,0
2018-09-04T02:17:08.592Z,0
2018-09-04T02:18:08.532Z,0
2018-09-04T02:19:08.588Z,0
2018-09-04T02:20:09.029Z,0
2018-09-04T02:21:08.607Z,0
2018-09-04T02:22:08.579Z,0
2018-09-04T02:23:08.583Z,0
2018-09-04T02:24:08.569Z,0
2018-09-04T02:25:08.749Z,0
2018-09-04T02:26:08.965Z,0
2018-09-04T02:27:08.863Z,0
2018-09-04T02:28:08.567Z,0
2018-09-04T02:29:08.569Z,0
2018-09-04T02:30:08.721Z,0
2018-09-04T02:31:08.580Z,0
2018-09-04T02:32:08.905Z,0
2018-09-04T02:33:08.799Z,0
2018-09-04T02:34:08.635Z,0
2018-09-04T02:39:26.426Z,0
2018-09-04T02:39:38.637Z,0
2018-09-04T02:40:38.622Z,0
2018-09-04T02:41:38.616Z,0
2018-09-04T02:42:38.657Z,0
2018-09-04T02:43:38.643Z,0
2018-09-04T02:44:38.648Z,0
2018-09-04T02:45:38.676Z,0
2018-09-04T02:46:38.611Z,0
2018-09-04T02:47:38.654Z,0
2018-09-04T02:48:38.636Z,0
2018-09-04T02:49:39.015Z,0
2018-09-04T02:50:38.644Z,0
2018-09-04T02:51:38.679Z,0
2018-09-04T02:53:43.168Z,0
2018-09-04T02:53:55.486Z,0
2018-09-04T02:54:55.749Z,0
2018-09-04T02:55:55.399Z,0
2018-09-04T02:56:55.371Z,0
2018-09-04T02:57:55.380Z,0
2018-09-04T02:58:55.376Z,0
2018-09-04T02:59:55.369Z,0
2018-09-04T03:05:12.867Z,0
2018-09-04T03:05:25.060Z,0
2018-09-04T03:06:24.994Z,0
2018-09-04T03:07:25.086Z,0
2018-09-04T03:08:25.002Z,0
2018-09-04T03:09:25.420Z,0
2018-09-04T03:10:25.051Z,0
2018-09-04T03:11:24.999Z,0
2018-09-04T03:12:25.032Z,0
2018-09-04T03:13:25.222Z,0
2018-09-04T03:14:25.051Z,0
2018-09-04T03:15:27.414Z,0
2018-09-04T03:16:25.121Z,0
2018-09-04T03:17:25.167Z,0
2018-09-04T03:18:25.759Z,0
2018-09-04T03:19:25.693Z,0
2018-09-04T03:20:25.054Z,0
2018-09-04T03:21:25.395Z,0
2018-09-04T03:22:25.071Z,0
2018-09-04T03:23:25.144Z,0
2018-09-04T03:24:25.083Z,0
2018-09-04T03:25:25.082Z,0
2018-09-04T03:26:25.053Z,0
2018-09-04T03:27:27.012Z,0
2018-09-04T03:28:25.078Z,0
2018-09-04T03:29:25.076Z,0
2018-09-04T03:30:25.079Z,0
2018-09-04T03:31:25.088Z,0
2018-09-04T03:32:25.139Z,0
2018-09-04T03:33:26.497Z,0
2018-09-04T03:34:25.120Z,0
2018-09-04T03:35:25.491Z,0
2018-09-04T03:36:25.092Z,0
2018-09-04T03:37:25.107Z,0
2018-09-04T03:38:25.136Z,0
2018-09-04T03:39:28.900Z,0
2018-09-04T03:40:25.112Z,0
2018-09-04T03:41:25.094Z,0
2018-09-04T03:42:25.313Z,0
2018-09-04T03:43:25.373Z,0
2018-09-04T03:44:25.301Z,0
2018-09-04T03:45:25.458Z,0
2018-09-04T03:46:25.154Z,0
2018-09-04T03:47:25.396Z,0
2018-09-04T03:48:25.092Z,0
2018-09-04T03:49:25.095Z,0
2018-09-04T03:50:25.115Z,0
2018-09-04T03:51:25.408Z,0
2018-09-04T03:52:25.341Z,0
2018-09-04T03:53:25.116Z,0
2018-09-04T03:54:25.132Z,0
2018-09-04T03:55:25.106Z,0
2018-09-04T03:56:25.113Z,0
2018-09-04T03:57:25.424Z,0
2018-09-04T03:58:25.124Z,0
2018-09-04T03:59:25.164Z,0
2018-09-04T04:00:25.145Z,0
2018-09-04T04:01:25.290Z,0
2018-09-04T04:02:25.122Z,0
2018-09-04T04:03:25.406Z,0
2018-09-04T04:04:25.230Z,0
2018-09-04T04:05:25.136Z,0
2018-09-04T04:06:25.108Z,0
2018-09-04T04:07:25.147Z,0
2018-09-04T04:08:25.208Z,0
2018-09-04T04:09:25.507Z,0
2018-09-04T04:10:25.179Z,0
2018-09-04T04:11:25.141Z,0
2018-09-04T04:12:25.154Z,0
2018-09-04T04:13:25.160Z,0
2018-09-04T04:14:25.102Z,0
2018-09-04T04:15:25.545Z,0
2018-09-04T04:16:25.181Z,0
2018-09-04T04:17:25.350Z,0
2018-09-04T04:18:25.321Z,0
2018-09-04T04:19:25.164Z,0
2018-09-04T04:20:25.199Z,0
2018-09-04T04:21:25.241Z,0
2018-09-04T04:22:25.189Z,0
2018-09-04T04:23:25.460Z,0
2018-09-04T04:24:25.296Z,0
2018-09-04T04:25:25.204Z,0
2018-09-04T04:26:25.221Z,0
2018-09-04T04:27:25.178Z,0
2018-09-04T04:28:25.671Z,0
2018-09-04T04:29:25.157Z,0
2018-09-04T04:36:05.886Z,0
2018-09-04T04:37:05.869Z,0
2018-09-04T04:38:05.866Z,4
2018-09-04T04:39:05.876Z,4
2018-09-04T04:40:08.502Z,4
2018-09-04T04:41:05.893Z,0
2018-09-04T04:42:05.889Z,0
2018-09-04T04:43:05.840Z,4
2018-09-04T04:44:05.903Z,4
2018-09-04T04:45:05.916Z,4
2018-09-04T04:46:06.202Z,4
2018-09-04T04:47:05.889Z,4
2018-09-04T04:48:06.106Z,4
2018-09-04T04:49:05.933Z,4
2018-09-04T04:50:05.934Z,8
2018-09-04T04:51:05.922Z,8
2018-09-04T04:52:06.229Z,8
2018-09-04T04:53:05.930Z,12
2018-09-04T04:54:05.901Z,12
2018-09-04T04:55:05.984Z,8
2018-09-04T04:56:05.952Z,12
2018-09-04T04:57:05.986Z,16
2018-09-04T04:58:06.272Z,12
2018-09-04T04:59:05.947Z,16
2018-09-04T05:00:05.938Z,16
2018-09-04T05:01:06.627Z,20
2018-09-04T05:02:05.920Z,16
2018-09-04T05:03:05.962Z,20
2018-09-04T05:04:08.258Z,20
2018-09-04T05:05:05.906Z,24
2018-09-04T05:06:05.913Z,24
2018-09-04T05:07:05.950Z,24
2018-09-04T05:08:05.995Z,24
2018-09-04T05:09:05.931Z,28
2018-09-04T05:15:23.138Z,36
2018-09-04T05:15:35.357Z,36
2018-09-04T05:16:35.775Z,40
2018-09-04T05:17:35.321Z,40
2018-09-04T05:18:35.375Z,40
2018-09-04T05:19:36.055Z,44
2018-09-04T05:20:35.389Z,44
2018-09-04T05:21:35.410Z,52
2018-09-04T05:22:35.941Z,48
2018-09-04T05:23:35.375Z,52
2018-09-04T05:24:35.420Z,56
2018-09-04T05:25:35.391Z,52
2018-09-04T05:26:35.364Z,56
2018-09-04T05:27:35.334Z,56
2018-09-04T05:28:35.750Z,60
2018-09-04T05:29:35.485Z,56
2018-09-04T05:30:35.358Z,64
2018-09-04T05:31:35.401Z,60
2018-09-04T05:32:35.376Z,56
2018-09-04T05:33:35.404Z,56
2018-09-04T05:34:36.709Z,52
2018-09-04T05:35:35.394Z,52
2018-09-04T05:36:35.451Z,52
2018-09-04T05:37:35.466Z,52
2018-09-04T05:38:35.406Z,52
2018-09-04T05:39:35.378Z,52
2018-09-04T05:40:36.762Z,52
2018-09-04T05:41:35.397Z,52
2018-09-04T05:42:35.405Z,52
2018-09-04T05:43:35.439Z,52
2018-09-04T05:44:35.357Z,56
2018-09-04T05:45:35.430Z,56
2018-09-04T05:46:35.771Z,56
2018-09-04T05:47:35.426Z,56
2018-09-04T05:48:35.400Z,60
2018-09-04T05:49:35.412Z,68
2018-09-04T05:54:52.613Z,84
2018-09-04T05:55:04.961Z,88
2018-09-04T05:56:04.855Z,88
2018-09-04T05:57:04.815Z,88
2018-09-04T05:58:04.820Z,88
2018-09-04T05:59:04.890Z,76
2018-09-04T06:00:05.356Z,68
2018-09-04T06:01:04.876Z,64
2018-09-04T06:02:04.880Z,64
2018-09-04T06:03:04.818Z,64
2018-09-04T06:04:04.867Z,64
2018-09-04T06:05:04.829Z,72
2018-09-04T06:07:04.842Z,96
2018-09-04T06:08:04.818Z,88
2018-09-04T06:09:04.932Z,88
2018-09-04T06:10:04.894Z,88
2018-09-04T06:11:04.838Z,96
2018-09-04T06:12:05.232Z,96
2018-09-04T06:13:04.862Z,92
2018-09-04T06:14:04.952Z,96
2018-09-04T06:15:04.970Z,96
2018-09-04T06:16:04.842Z,100
2018-09-04T06:17:04.868Z,96
2018-09-04T06:18:05.154Z,96
2018-09-04T06:19:04.858Z,92
2018-09-04T06:20:05.151Z,88
2018-09-04T06:21:04.908Z,88
2018-09-04T06:22:04.873Z,88
2018-09-04T06:23:04.877Z,88
2018-09-04T06:24:05.191Z,92
2018-09-04T06:25:04.876Z,88
2018-09-04T06:26:04.857Z,72
2018-09-04T06:27:04.869Z,72
2018-09-04T06:28:04.874Z,68
2018-09-04T06:29:04.905Z,72
2018-09-04T06:30:05.348Z,72
2018-09-04T06:31:04.861Z,64
2018-09-04T06:32:04.882Z,60
2018-09-04T06:33:04.878Z,64
2018-09-04T06:34:05.034Z,64
2018-09-04T06:35:04.958Z,64
2018-09-04T06:40:22.093Z,60
2018-09-04T06:40:34.353Z,60
2018-09-04T06:41:34.490Z,60
2018-09-04T06:42:34.326Z,60
2018-09-04T06:43:34.329Z,56
2018-09-04T06:44:36.656Z,56
2018-09-04T06:45:34.329Z,56
2018-09-04T06:46:34.498Z,60
2018-09-04T06:47:34.356Z,60
2018-09-04T06:48:34.428Z,64
2018-09-04T06:50:09.460Z,64
2018-09-04T06:50:34.388Z,68
2018-09-04T06:51:34.315Z,64
2018-09-04T06:52:34.321Z,68
2018-09-04T06:53:34.333Z,68
2018-09-04T06:54:34.483Z,64
2018-09-04T06:55:34.688Z,60
2018-09-04T06:56:34.387Z,64
2018-09-04T06:57:34.320Z,64
2018-09-04T06:58:34.374Z,64
2018-09-04T06:59:34.433Z,64
2018-09-04T07:00:34.374Z,60
2018-09-04T07:01:34.310Z,60
2018-09-04T07:02:34.323Z,68
2018-09-04T07:03:34.321Z,80
2018-09-04T07:04:34.449Z,96
2018-09-04T07:05:34.577Z,112
2018-09-04T07:06:35.069Z,112
2018-09-04T07:07:34.455Z,108
2018-09-04T07:08:34.472Z,108
2018-09-04T07:09:34.367Z,108
2018-09-04T07:10:34.338Z,100
2018-09-04T07:11:34.410Z,92
2018-09-04T07:12:34.698Z,84
2018-09-04T07:13:34.389Z,88
2018-09-04T07:14:34.363Z,92
2018-09-04T07:15:34.364Z,92
2018-09-04T07:16:34.381Z,88
2018-09-04T07:17:34.416Z,92
2018-09-04T07:18:35.755Z,96
2018-09-04T07:19:35.012Z,96
2018-09-04T07:20:34.365Z,96
2018-09-04T07:21:34.371Z,100
2018-09-04T07:22:34.376Z,104
2018-09-04T07:23:34.384Z,104
2018-09-04T07:24:34.780Z,104
2018-09-04T07:25:34.365Z,108
2018-09-04T07:32:15.229Z,100
2018-09-04T07:33:15.167Z,100
2018-09-04T07:34:15.186Z,104
2018-09-04T07:35:15.188Z,104
2018-09-04T07:36:15.194Z,108
2018-09-04T07:37:16.625Z,104
2018-09-04T07:38:15.199Z,104
2018-09-04T07:39:15.171Z,104
2018-09-04T07:40:15.220Z,104
2018-09-04T07:41:15.192Z,108
2018-09-04T07:42:15.243Z,112
2018-09-04T07:43:15.504Z,108
2018-09-04T07:44:15.203Z,112
2018-09-04T07:45:15.243Z,116
2018-09-04T07:46:15.231Z,120
2018-09-04T07:47:15.204Z,128
2018-09-04T07:48:15.199Z,128
2018-09-04T07:49:15.588Z,128
2018-09-04T07:50:15.535Z,128
2018-09-04T07:51:15.220Z,124
2018-09-04T07:52:15.197Z,120
2018-09-04T07:53:15.316Z,120
2018-09-04T07:54:15.202Z,124
2018-09-04T07:55:15.616Z,120
2018-09-04T07:56:15.224Z,120
2018-09-04T07:57:16.734Z,112
2018-09-04T07:58:15.226Z,108
2018-09-04T07:59:15.212Z,112
2018-09-04T08:00:15.239Z,116
2018-09-04T08:01:15.668Z,124
2018-09-04T08:02:15.271Z,124
2018-09-04T08:03:15.230Z,136
2018-09-04T08:04:15.234Z,152
2018-09-04T08:05:15.311Z,164
2018-09-04T08:06:15.246Z,180
2018-09-04T08:07:15.593Z,188
2018-09-04T08:08:15.479Z,196
2018-09-04T08:09:15.249Z,204
2018-09-04T08:10:35.409Z,216
2018-09-04T08:11:15.251Z,228
2018-09-04T08:12:15.253Z,240
2018-09-04T08:13:15.630Z,256
2018-09-04T08:16:22.659Z,296
2018-09-04T08:16:35.048Z,296
2018-09-04T08:17:34.985Z,300
2018-09-04T08:18:35.437Z,296
2018-09-04T08:19:34.894Z,296
2018-09-04T08:20:35.213Z,292
2018-09-04T08:21:34.950Z,284
2018-09-04T08:22:35.044Z,276
2018-09-04T08:23:34.995Z,272
2018-09-04T08:24:35.226Z,272
2018-09-04T08:25:34.960Z,264
2018-09-04T08:26:34.972Z,248
2018-09-04T08:27:34.913Z,228
2018-09-04T08:28:34.945Z,212
2018-09-04T08:29:34.988Z,208
2018-09-04T08:30:35.305Z,212
2018-09-04T08:31:34.905Z,220
2018-09-04T08:32:35.006Z,220
2018-09-04T08:33:34.944Z,204
2018-09-04T08:34:34.939Z,192
2018-09-04T08:35:35.201Z,208
2018-09-04T08:36:35.361Z,232
2018-09-04T08:37:34.942Z,228
2018-09-04T08:38:34.944Z,220
2018-09-04T08:39:34.986Z,224
2018-09-04T08:40:34.959Z,228
2018-09-04T08:41:34.926Z,236
2018-09-04T08:42:36.301Z,228
2018-09-04T08:43:34.952Z,232
2018-09-04T08:44:34.948Z,240
2018-09-04T08:45:34.958Z,244
2018-09-04T08:46:35.034Z,248
2018-09-04T08:47:35.041Z,252
2018-09-04T08:48:35.330Z,256
2018-09-04T08:49:34.948Z,260
2018-09-04T08:50:35.160Z,268
2018-09-04T08:51:34.961Z,280
2018-09-04T08:52:34.974Z,300
2018-09-04T08:53:35.244Z,316
2018-09-04T08:54:35.260Z,332
2018-09-04T08:55:34.996Z,360
2018-09-04T08:56:34.964Z,420
2018-09-04T08:57:34.982Z,492
2018-09-04T08:58:35.150Z,552
2018-09-04T08:59:34.995Z,584
2018-09-04T09:00:36.336Z,588
2018-09-04T09:01:34.958Z,520
2018-09-04T09:02:34.967Z,460
2018-09-04T09:03:35.023Z,404
2018-09-04T09:04:34.980Z,332
2018-09-04T09:05:35.100Z,280
2018-09-04T09:06:35.333Z,260
2018-09-04T09:07:34.994Z,252
2018-09-04T09:08:35.057Z,252
2018-09-04T09:09:34.947Z,268
2018-09-04T09:10:34.987Z,292
2018-09-04T09:11:35.064Z,308
2018-09-04T09:12:35.371Z,312
2018-09-04T09:13:35.112Z,308
2018-09-04T09:14:35.015Z,304
2018-09-04T09:15:34.984Z,304
2018-09-04T09:16:35.022Z,296
2018-09-04T09:17:35.000Z,292
2018-09-04T09:18:35.423Z,308
2018-09-04T09:19:35.650Z,328
2018-09-04T09:20:35.045Z,328
2018-09-04T09:21:34.996Z,316
2018-09-04T09:22:35.039Z,296
2018-09-04T09:23:34.997Z,280
2018-09-04T09:24:35.347Z,268
2018-09-04T09:25:35.008Z,260
2018-09-04T09:26:34.996Z,284
2018-09-04T09:27:35.026Z,308
2018-09-04T09:28:35.033Z,348
2018-09-04T09:29:35.012Z,384
2018-09-04T09:30:35.712Z,416
2018-09-04T09:31:35.054Z,436
2018-09-04T09:32:35.011Z,448
2018-09-04T09:33:35.036Z,460
2018-09-04T09:34:35.003Z,464
2018-09-04T09:35:35.079Z,476
2018-09-04T09:36:36.569Z,484
2018-09-04T09:37:35.058Z,484
2018-09-04T09:42:06.496Z,444
2018-09-04T09:43:04.036Z,464
2018-09-04T09:44:04.064Z,504
2018-09-04T09:46:23.448Z,664
2018-09-04T09:47:23.470Z,656
2018-09-04T09:48:23.421Z,692
2018-09-04T09:49:23.429Z,640
2018-09-04T09:50:23.574Z,620
2018-09-04T09:51:23.459Z,584
2018-09-04T09:52:23.495Z,504
2018-09-04T09:53:24.183Z,476
2018-09-04T09:54:23.462Z,460
2018-09-04T09:55:23.472Z,448
2018-09-04T09:56:23.684Z,432
2018-09-04T09:57:23.486Z,416
2018-09-04T09:58:23.429Z,400
2018-09-04T09:59:24.871Z,400
2018-09-04T10:00:23.605Z,400
2018-09-04T10:01:23.419Z,408
2018-09-04T10:02:23.449Z,420
2018-09-04T10:03:23.454Z,432
2018-09-04T10:04:23.502Z,456
2018-09-04T10:05:24.768Z,480
2018-09-04T10:06:23.437Z,500
2018-09-04T10:07:23.451Z,532
2018-09-04T10:08:23.541Z,576
2018-09-04T10:09:23.469Z,688
2018-09-04T10:10:23.598Z,788
2018-09-04T10:11:24.872Z,868
2018-09-04T10:12:23.486Z,1164
2018-09-04T10:13:23.454Z,1084
2018-09-04T10:14:23.461Z,924
2018-09-04T10:15:23.475Z,804
2018-09-04T10:16:23.510Z,672
2018-09-04T10:17:24.783Z,560
2018-09-04T10:18:23.532Z,528
2018-09-04T10:19:24.245Z,528
2018-09-04T10:20:23.506Z,520
2018-09-04T10:21:23.620Z,524
2018-09-04T10:22:23.475Z,544
2018-09-04T10:23:24.922Z,584
2018-09-04T10:24:23.508Z,636
2018-09-04T10:25:23.510Z,712
2018-09-04T10:26:23.603Z,820
2018-09-04T10:33:02.212Z,704
2018-09-04T10:34:02.159Z,684
2018-09-04T10:35:02.266Z,684
2018-09-04T10:36:02.233Z,692
2018-09-04T10:37:02.550Z,684
2018-09-04T10:38:02.160Z,664
2018-09-04T10:43:19.889Z,1460
2018-09-04T10:43:32.520Z,1480
2018-09-04T10:44:32.267Z,1508
2018-09-04T10:45:32.088Z,1184
2018-09-04T10:46:32.131Z,1220
2018-09-04T10:47:32.123Z,1044
2018-09-04T10:48:32.148Z,992
2018-09-04T10:49:32.537Z,868
2018-09-04T10:50:32.128Z,916
2018-09-04T10:51:32.132Z,1192
2018-09-04T10:52:32.111Z,1044
2018-09-04T10:53:32.830Z,912
2018-09-04T10:54:32.189Z,1184
2018-09-04T10:55:32.628Z,1024
2018-09-04T10:56:32.129Z,1272
2018-09-04T10:57:32.174Z,852
2018-09-04T10:58:32.187Z,860
2018-09-04T10:59:32.216Z,916
2018-09-04T11:00:32.088Z,1232
2018-09-04T11:01:32.527Z,780
2018-09-04T11:02:32.234Z,800
2018-09-04T11:03:32.151Z,936
2018-09-04T11:04:32.132Z,844
2018-09-04T11:05:32.175Z,832
2018-09-04T11:06:32.124Z,804
2018-09-04T11:07:33.460Z,876
2018-09-04T11:08:32.240Z,868
2018-09-04T11:09:32.404Z,1056
2018-09-04T11:10:32.215Z,876
2018-09-04T11:11:32.189Z,852
2018-09-04T11:12:32.198Z,864
2018-09-04T11:13:32.584Z,840
2018-09-04T11:14:32.140Z,860
2018-09-04T11:15:32.146Z,916
2018-09-04T11:16:32.204Z,964
2018-09-04T11:17:32.200Z,976
2018-09-04T11:18:32.141Z,1060
2018-09-04T11:19:32.520Z,988
2018-09-04T11:20:32.178Z,948
2018-09-04T11:21:32.221Z,908
2018-09-04T11:22:32.193Z,916
2018-09-04T11:23:32.176Z,964
2018-09-04T11:26:39.486Z,820
2018-09-04T11:26:52.188Z,820
2018-09-04T11:27:52.089Z,824
2018-09-04T11:28:52.153Z,804
2018-09-04T11:29:52.141Z,804
2018-09-04T11:30:52.318Z,812
2018-09-04T11:31:52.116Z,836
2018-09-04T11:32:52.571Z,856
2018-09-04T11:33:52.178Z,860
2018-09-04T11:34:52.144Z,872
2018-09-04T11:35:52.598Z,984
2018-09-04T11:36:52.187Z,944
2018-09-04T11:37:52.135Z,988
2018-09-04T11:38:52.540Z,956
2018-09-04T11:39:52.210Z,1036
2018-09-04T11:40:52.212Z,1492
2018-09-04T11:41:52.200Z,1236
2018-09-04T11:42:52.123Z,1428
2018-09-04T11:43:52.173Z,1708
2018-09-04T11:44:52.547Z,1440
2018-09-04T11:45:52.365Z,1068
2018-09-04T11:46:52.213Z,1052
2018-09-04T11:47:52.267Z,968
2018-09-04T11:48:52.167Z,876
2018-09-04T11:49:52.209Z,956
2018-09-04T11:51:56.927Z,1068
2018-09-04T11:52:09.143Z,1356
2018-09-04T11:53:09.118Z,964
2018-09-04T11:54:09.155Z,1232
2018-09-04T11:55:09.143Z,1012
2018-09-04T11:56:09.140Z,1104
2018-09-04T11:57:09.160Z,940
2018-09-04T11:58:14.352Z,1412
2018-09-04T11:59:09.157Z,1248
2018-09-04T12:00:09.140Z,1480
2018-09-04T12:01:09.136Z,1476
2018-09-04T12:02:09.358Z,1476
2018-09-04T12:03:09.162Z,1460
2018-09-04T12:04:09.566Z,1420
2018-09-04T12:05:09.289Z,1412
2018-09-04T12:06:09.515Z,1392
2018-09-04T12:07:09.244Z,1380
2018-09-04T12:08:09.317Z,1372
2018-09-04T12:09:09.633Z,1320
2018-09-04T12:10:09.510Z,1312
2018-09-04T12:11:09.215Z,1300
2018-09-04T12:12:09.220Z,1288
2018-09-04T12:17:27.060Z,1252
2018-09-04T12:17:39.316Z,1260
2018-09-04T12:18:39.934Z,1240
2018-09-04T12:19:39.272Z,1116
2018-09-04T12:20:39.349Z,1232
2018-09-04T12:21:39.551Z,1216
2018-09-04T12:22:39.687Z,1224
2018-09-04T12:23:39.351Z,1324
2018-09-04T12:24:39.450Z,1312
2018-09-04T12:25:39.260Z,1304
2018-09-04T12:26:39.405Z,1324
2018-09-04T12:27:39.345Z,1336
2018-09-04T12:28:43.173Z,1336
2018-09-04T12:29:39.286Z,1328
2018-09-04T12:30:39.240Z,1332
2018-09-04T12:31:39.715Z,1368
2018-09-04T12:32:39.275Z,1316
2018-09-04T12:33:39.280Z,1288
2018-09-04T12:34:40.220Z,1300
2018-09-04T12:35:39.262Z,1120
2018-09-04T12:36:39.478Z,876
2018-09-04T12:37:39.380Z,832
2018-09-04T12:38:39.317Z,700
2018-09-04T12:39:39.267Z,676
2018-09-04T12:40:39.601Z,652
2018-09-04T12:41:39.373Z,640
2018-09-04T12:42:39.443Z,628
2018-09-04T12:43:39.314Z,616
2018-09-04T12:44:39.308Z,624
2018-09-04T12:45:39.400Z,636
2018-09-04T12:46:39.652Z,660
2018-09-04T12:47:39.305Z,912
2018-09-04T12:48:39.634Z,928
2018-09-04T12:49:39.323Z,832
2018-09-04T12:50:39.336Z,664
2018-09-04T12:51:39.378Z,632
2018-09-04T12:52:39.715Z,592
2018-09-04T12:53:39.341Z,624
2018-09-04T12:54:39.474Z,908
2018-09-04T12:55:39.366Z,752
2018-09-04T12:56:39.499Z,764
2018-09-04T12:57:39.354Z,908
2018-09-04T12:58:39.717Z,1088
2018-09-04T12:59:39.467Z,1180
2018-09-04T13:00:39.530Z,1172
2018-09-04T13:01:39.347Z,1164
2018-09-04T13:02:39.340Z,1184
2018-09-04T13:03:39.816Z,1204
2018-09-04T13:04:39.800Z,1180
2018-09-04T13:05:39.468Z,1148
2018-09-04T13:06:39.381Z,1124
2018-09-04T13:07:39.340Z,1136
2018-09-04T13:08:39.348Z,1112
2018-09-04T13:09:39.389Z,1132
2018-09-04T13:12:36.100Z,1148
2018-09-04T13:23:33.390Z,1064
2018-09-04T13:23:45.343Z,1060
2018-09-04T13:24:46.760Z,1064
2018-09-04T13:27:52.635Z,1064
2018-09-04T13:28:04.589Z,1064
2018-09-04T13:29:04.570Z,1080
2018-09-04T13:30:05.146Z,1084
2018-09-04T13:31:04.852Z,1068
2018-09-04T13:32:04.748Z,1064
2018-09-04T13:33:04.755Z,1060
2018-09-04T13:34:04.811Z,1060
2018-09-04T13:35:04.835Z,1080
2018-09-04T13:36:08.542Z,1088
2018-09-04T13:37:04.991Z,1064
2018-09-04T13:38:04.759Z,1028
2018-09-04T13:39:04.828Z,996
2018-09-04T13:40:05.119Z,1012
2018-09-04T13:41:04.809Z,1004
2018-09-04T13:42:05.191Z,964
2018-09-04T13:43:04.825Z,952
2018-09-04T13:44:04.797Z,912
2018-09-04T13:45:05.020Z,912
2018-09-04T13:46:04.858Z,904
2018-09-04T13:47:04.975Z,948
2018-09-04T13:48:05.146Z,908
2018-09-04T13:49:04.894Z,932
2018-09-04T13:50:04.795Z,912
2018-09-04T13:51:04.787Z,808
2018-09-04T13:52:04.809Z,848
2018-09-04T13:53:04.932Z,824
2018-09-04T13:54:05.166Z,852
2018-09-04T13:55:04.866Z,880
2018-09-04T13:56:04.848Z,916
2018-09-04T13:57:04.907Z,908
2018-09-04T13:58:04.817Z,912
2018-09-04T13:59:04.827Z,924
2018-09-04T14:00:05.265Z,916
2018-09-04T14:01:04.844Z,904
2018-09-04T14:02:06.276Z,896
2018-09-04T14:03:04.854Z,900
2018-09-04T14:04:04.821Z,916
2018-09-04T14:05:04.829Z,912
2018-09-04T14:06:06.181Z,908
2018-09-04T14:07:04.916Z,908
2018-09-04T14:08:04.848Z,900
2018-09-04T14:09:04.893Z,916
2018-09-04T14:10:04.842Z,908
2018-09-04T14:11:04.905Z,896
2018-09-04T14:12:07.331Z,876
2018-09-04T14:13:04.848Z,888
2018-09-04T14:14:04.989Z,868
2018-09-04T14:15:04.863Z,872
2018-09-04T14:16:04.865Z,860
2018-09-04T14:17:05.208Z,848
2018-09-04T14:18:07.273Z,844
2018-09-04T14:19:04.829Z,836
2018-09-04T14:20:06.258Z,836
2018-09-04T14:21:05.062Z,824
2018-09-04T14:22:04.868Z,784
2018-09-04T14:23:05.057Z,776
2018-09-04T14:24:05.272Z,540
2018-09-04T14:25:04.894Z,760
2018-09-04T14:26:05.002Z,812
2018-09-04T14:27:04.869Z,808
2018-09-04T14:28:04.882Z,828
2018-09-04T14:29:53.171Z,812
2018-09-04T14:30:21.823Z,768
2018-09-04T14:31:04.932Z,780
2018-09-04T14:32:04.919Z,812
2018-09-04T14:33:04.877Z,832
2018-09-04T14:34:04.934Z,812
2018-09-04T14:35:05.231Z,772
2018-09-04T14:36:05.069Z,728
2018-09-04T14:37:05.135Z,444
2018-09-04T14:38:04.881Z,456
2018-09-04T14:39:04.847Z,724
2018-09-04T14:40:04.936Z,732
2018-09-04T14:41:05.269Z,740
2018-09-04T14:42:04.971Z,708
2018-09-04T14:43:04.943Z,720
2018-09-04T14:44:04.915Z,716
2018-09-04T14:45:05.096Z,728
2018-09-04T14:46:04.894Z,740
2018-09-04T14:47:05.309Z,748
2018-09-04T14:48:05.039Z,752
2018-09-04T14:49:04.885Z,748
2018-09-04T14:50:04.958Z,768
2018-09-04T14:51:04.925Z,768
2018-09-04T14:52:04.938Z,776
2018-09-04T14:53:05.285Z,768
2018-09-04T14:54:05.029Z,768
2018-09-04T14:55:04.925Z,744
2018-09-04T14:56:04.930Z,744
2018-09-04T14:57:05.103Z,756
2018-09-04T14:58:04.935Z,748
2018-09-04T14:59:05.284Z,732
2018-09-04T15:00:04.984Z,736
2018-09-04T15:01:04.889Z,732
2018-09-04T15:02:04.938Z,720
2018-09-04T15:03:04.905Z,708
2018-09-04T15:04:04.931Z,692
2018-09-04T15:05:05.472Z,688
2018-09-04T15:06:05.148Z,664
2018-09-04T15:08:09.576Z,684
2018-09-04T15:08:21.877Z,680
2018-09-04T15:09:21.815Z,680
2018-09-04T15:10:22.286Z,664
2018-09-04T15:11:21.817Z,648
2018-09-04T15:12:21.856Z,636
2018-09-04T15:13:21.868Z,604
2018-09-04T15:14:21.817Z,576
2018-09-04T15:15:21.912Z,560
2018-09-04T15:16:23.251Z,528
2018-09-04T15:17:21.851Z,504
2018-09-04T15:18:21.840Z,496
2018-09-04T15:19:21.846Z,492
2018-09-04T15:20:22.859Z,492
2018-09-04T15:21:21.814Z,484
2018-09-04T15:22:23.169Z,472
2018-09-04T15:23:21.825Z,420
2018-09-04T15:24:21.843Z,412